Airfield :
LOGIN :

Register | Disclaimer

   EN    FR    IT 

 










Legend :    VFR   Marginal VFR   IFR   Intensive IFR   Very Intensive IFR
Visi :
Ceiling :
>= 8 km
>= 3000ft
5 to 8 km
1000 to 3000 ft
1500m to 5 km
500 to 1000 ft
800 to 1500m
200 to 500 ft
< 800m
< 200 ft
Symbols :   Thunderstorms  Fog  Heavy snow  Heavy precipitations  Wind > 20 kt
SIGMETs :     Misc.  Thunderstorms  Icing  Turbulence  Mountain Waves  Volcanic Ashes






- Airport Elevation : 146 ft
- IATA code : RKE


EKRK - Roskilde Tune

CURRENT METAR :
  • 160450Z AUTO 02001KT 9999 SCT013/// M07/M09 Q1024 R03/790592 R11/710173

EXPIRED METARs :
  • 160420Z AUTO 36003KT 9999 BKN014/// M06/M08 Q1025 R99/790591 R99/720594
  • 160350Z AUTO 35003KT 9999 OVC015/// M06/M08 Q1025 R99/790591 R99/720594
  • 160320Z AUTO 30003KT 9999 OVC015/// M07/M09 Q1025 R99/790591 R99/720594
  • 160250Z AUTO 33002KT 9999 BKN016/// M09/M10 Q1025 R99/790591 R99/720594
  • 160220Z AUTO 34003KT 9999 NCD M08/M10 Q1025 R99/790591 R99/720594

TAF TAF EKRK
Valid from the 16 at 03:00 until the 16 at 12:00 UTC


160224Z 1603/1612 34003KT 9999 FEW020



MET'MAP, your aeronautical weather chart ! - Copyright ORBIFLY December 2007 - Disclaimer

ORBIFLY MET'MAP TEAM :

Programming & Development : Alexandra Zaïnal
Concept & original design : Baudouin d'Aumeries
Assistance for programming : Marc-Olivier Méhu
Technical & hardware support : Manuel Goepfert

Contact : metmap@orbifly.com




SOURCES & CREDITS :

   NOAA